Time,TemperatureF,DewpointF,PressureIn,WindDirection,WindDirectionDegrees,WindSpeedMPH,WindSpeedGustMPH,Humidity,HourlyPrecipIn,Conditions,Clouds,dailyrainin,SoftwareType,DateUTC
2013-03-03 00:05:00,26.6,17.1,29.84,West,270,1.7,-999.0,67,-99.99,,,0.00,Acu-Link.com,2013-03-03 05:05:00,
2013-03-03 00:20:00,26.6,17.8,29.84,ENE,67,4.7,-999.0,69,-99.99,,,0.00,Acu-Link.com,2013-03-03 05:20:00,
2013-03-03 00:36:00,26.6,17.5,29.84,ENE,67,6.3,-999.0,68,-99.99,,,0.00,Acu-Link.com,2013-03-03 05:36:00,
2013-03-03 00:51:00,26.4,17.6,29.85,NE,45,5.8,-999.0,69,-99.99,,,0.00,Acu-Link.com,2013-03-03 05:51:00,
2013-03-03 01:06:00,26.2,17.4,29.85,NE,45,4.7,-999.0,69,-99.99,,,0.00,Acu-Link.com,2013-03-03 06:06:00,
2013-03-03 01:21:00,26.1,18.0,29.85,East,90,3.7,-999.0,71,-99.99,,,0.00,Acu-Link.com,2013-03-03 06:21:00,
2013-03-03 01:36:00,26.1,17.3,29.84,East,90,6.8,-999.0,69,-99.99,,,0.00,Acu-Link.com,2013-03-03 06:36:00,
2013-03-03 01:51:00,26.1,17.3,29.84,ENE,67,7.3,-999.0,69,-99.99,,,0.00,Acu-Link.com,2013-03-03 06:51:00,
2013-03-03 02:07:00,26.1,17.0,29.84,ENE,67,6.3,-999.0,68,-99.99,,,0.00,Acu-Link.com,2013-03-03 07:07:00,
2013-03-03 02:22:00,26.1,17.7,29.84,ENE,67,3.2,-999.0,70,-99.99,,,0.00,Acu-Link.com,2013-03-03 07:22:00,
2013-03-03 02:37:00,25.9,17.5,29.84,ENE,67,6.3,-999.0,70,-99.99,,,0.00,Acu-Link.com,2013-03-03 07:37:00,
2013-03-03 02:52:00,25.9,17.2,29.83,NE,45,6.8,-999.0,69,-99.99,,,0.00,Acu-Link.com,2013-03-03 07:52:00,
2013-03-03 03:08:00,25.7,17.0,29.83,ENE,67,5.3,-999.0,69,-99.99,,,0.00,Acu-Link.com,2013-03-03 08:08:00,
2013-03-03 03:23:00,25.3,16.2,29.83,ENE,67,4.7,-999.0,68,-99.99,,,0.00,Acu-Link.com,2013-03-03 08:23:00,
2013-03-03 03:38:00,25.3,15.9,29.83,ENE,67,4.7,-999.0,67,-99.99,,,0.00,Acu-Link.com,2013-03-03 08:38:00,
2013-03-03 03:53:00,25.3,16.6,29.82,ENE,67,3.7,-999.0,69,-99.99,,,0.00,Acu-Link.com,2013-03-03 08:53:00,
2013-03-03 04:18:00,25.3,16.2,29.83,East,90,4.7,-999.0,68,-99.99,,,0.00,Acu-Link.com,2013-03-03 09:18:00,
2013-03-03 04:33:00,25.3,16.6,29.83,East,90,5.3,-999.0,69,-99.99,,,0.00,Acu-Link.com,2013-03-03 09:33:00,
2013-03-03 04:48:00,25.2,16.8,29.83,ENE,67,3.2,-999.0,70,-99.99,,,0.00,Acu-Link.com,2013-03-03 09:48:00,
2013-03-03 05:04:00,25.2,16.5,29.83,ENE,67,4.7,-999.0,69,-99.99,,,0.00,Acu-Link.com,2013-03-03 10:04:00,
2013-03-03 05:19:00,25.0,16.9,29.82,ENE,67,6.3,-999.0,71,-99.99,,,0.00,Acu-Link.com,2013-03-03 10:19:00,
2013-03-03 05:34:00,24.4,17.3,29.83,ENE,67,3.2,-999.0,74,-99.99,,,0.00,Acu-Link.com,2013-03-03 10:34:00,
2013-03-03 05:49:00,24.1,17.7,29.82,NE,45,2.2,-999.0,76,-99.99,,,0.00,Acu-Link.com,2013-03-03 10:49:00,
2013-03-03 06:04:00,23.5,18.0,29.83,ENE,67,1.7,-999.0,79,-99.99,,,0.00,Acu-Link.com,2013-03-03 11:04:00,
2013-03-03 06:20:00,23.2,18.5,29.83,NNE,22,2.2,-999.0,82,-99.99,,,0.00,Acu-Link.com,2013-03-03 11:20:00,
2013-03-03 06:35:00,22.8,18.7,29.83,SSW,202,1.1,-999.0,84,-99.99,,,0.00,Acu-Link.com,2013-03-03 11:35:00,
2013-03-03 06:50:00,22.6,18.5,29.82,ESE,112,0.0,-999.0,84,-99.99,,,0.00,Acu-Link.com,2013-03-03 11:50:00,
2013-03-03 07:06:00,22.5,18.4,29.83,ENE,67,1.7,-999.0,84,-99.99,,,0.00,Acu-Link.com,2013-03-03 12:06:00,
2013-03-03 07:21:00,22.6,18.8,29.84,SE,135,0.0,-999.0,85,-99.99,,,0.00,Acu-Link.com,2013-03-03 12:21:00,
2013-03-03 07:36:00,23.0,18.9,29.84,ESE,112,0.0,-999.0,84,-99.99,,,0.00,Acu-Link.com,2013-03-03 12:36:00,
2013-03-03 07:51:00,23.5,17.7,29.85,ENE,67,4.2,-999.0,78,-99.99,,,0.00,Acu-Link.com,2013-03-03 12:51:00,
2013-03-03 08:06:00,23.7,17.0,29.85,NNE,22,3.2,-999.0,75,-99.99,,,0.00,Acu-Link.com,2013-03-03 13:06:00,
2013-03-03 08:22:00,23.5,15.8,29.86,NE,45,3.7,-999.0,72,-99.99,,,0.00,Acu-Link.com,2013-03-03 13:22:00,
2013-03-03 08:37:00,23.9,14.9,29.86,ENE,67,3.7,-999.0,68,-99.99,,,0.00,Acu-Link.com,2013-03-03 13:37:00,
2013-03-03 08:52:00,25.2,15.8,29.86,NE,45,3.7,-999.0,67,-99.99,,,0.00,Acu-Link.com,2013-03-03 13:52:00,
2013-03-03 09:07:00,25.9,15.1,29.86,ESE,112,2.2,-999.0,63,-99.99,,,0.00,Acu-Link.com,2013-03-03 14:07:00,
2013-03-03 09:22:00,27.5,15.1,29.86,ENE,67,3.7,-999.0,59,-99.99,,,0.00,Acu-Link.com,2013-03-03 14:22:00,
2013-03-03 09:38:00,28.6,14.9,29.86,ENE,67,3.2,-999.0,56,-99.99,,,0.00,Acu-Link.com,2013-03-03 14:38:00,
2013-03-03 09:53:00,28.6,14.5,29.86,East,90,4.7,-999.0,55,-99.99,,,0.00,Acu-Link.com,2013-03-03 14:53:00,
2013-03-03 10:08:00,29.1,14.6,29.86,NE,45,3.7,-999.0,54,-99.99,,,0.00,Acu-Link.com,2013-03-03 15:08:00,
2013-03-03 10:23:00,30.4,15.8,29.86,East,90,3.2,-999.0,54,-99.99,,,0.00,Acu-Link.com,2013-03-03 15:23:00,
2013-03-03 10:39:00,29.5,13.6,29.86,NE,45,6.8,-999.0,51,-99.99,,,0.00,Acu-Link.com,2013-03-03 15:39:00,
2013-03-03 10:54:00,30.7,14.7,29.85,ENE,67,3.2,-999.0,51,-99.99,,,0.00,Acu-Link.com,2013-03-03 15:54:00,
2013-03-03 11:09:00,30.2,14.3,29.86,NE,45,5.8,-999.0,51,-99.99,,,0.00,Acu-Link.com,2013-03-03 16:09:00,
2013-03-03 11:24:00,31.8,15.8,29.86,ENE,67,5.3,-999.0,51,-99.99,,,0.00,Acu-Link.com,2013-03-03 16:24:00,
2013-03-03 11:39:00,31.6,14.7,29.86,ENE,67,6.3,-999.0,49,-99.99,,,0.00,Acu-Link.com,2013-03-03 16:39:00,
2013-03-03 11:54:00,31.6,14.7,29.86,NW,315,4.2,-999.0,49,-99.99,,,0.00,Acu-Link.com,2013-03-03 16:54:00,
2013-03-03 12:09:00,33.4,16.3,29.86,NE,45,3.7,-999.0,49,-99.99,,,0.00,Acu-Link.com,2013-03-03 17:09:00,
2013-03-03 12:24:00,34.3,17.1,29.85,NE,45,5.8,-999.0,49,-99.99,,,0.00,Acu-Link.com,2013-03-03 17:24:00,
2013-03-03 12:39:00,33.4,16.3,29.85,NE,45,6.3,-999.0,49,-99.99,,,0.00,Acu-Link.com,2013-03-03 17:39:00,
2013-03-03 12:54:00,33.3,15.8,29.84,ENE,67,4.7,-999.0,48,-99.99,,,0.00,Acu-Link.com,2013-03-03 17:54:00,
2013-03-03 13:09:00,34.0,15.9,29.84,ENE,67,5.3,-999.0,47,-99.99,,,0.00,Acu-Link.com,2013-03-03 18:09:00,
2013-03-03 13:24:00,34.2,16.6,29.84,ENE,67,5.3,-999.0,48,-99.99,,,0.00,Acu-Link.com,2013-03-03 18:24:00,
2013-03-03 13:40:00,35.8,18.5,29.84,NNE,22,3.7,-999.0,49,-99.99,,,0.00,Acu-Link.com,2013-03-03 18:40:00,
2013-03-03 13:55:00,37.2,19.8,29.83,South,180,2.7,-999.0,49,-99.99,,,0.00,Acu-Link.com,2013-03-03 18:55:00,
2013-03-03 14:10:00,35.4,18.2,29.83,ENE,67,2.2,-999.0,49,-99.99,,,0.00,Acu-Link.com,2013-03-03 19:10:00,
2013-03-03 14:25:00,34.9,18.2,29.83,NE,45,2.7,-999.0,50,-99.99,,,0.00,Acu-Link.com,2013-03-03 19:25:00,
2013-03-03 14:41:00,35.4,18.6,29.83,SSE,157,3.2,-999.0,50,-99.99,,,0.00,Acu-Link.com,2013-03-03 19:41:00,
2013-03-03 14:56:00,35.6,18.8,29.84,ENE,67,3.2,-999.0,50,-99.99,,,0.00,Acu-Link.com,2013-03-03 19:56:00,
2013-03-03 15:11:00,33.8,18.5,29.84,East,90,2.7,-999.0,53,-99.99,,,0.00,Acu-Link.com,2013-03-03 20:11:00,
2013-03-03 15:27:00,34.0,18.2,29.84,ENE,67,4.2,-999.0,52,-99.99,,,0.00,Acu-Link.com,2013-03-03 20:27:00,
2013-03-03 15:42:00,34.9,19.5,29.84,ENE,67,3.7,-999.0,53,-99.99,,,0.00,Acu-Link.com,2013-03-03 20:42:00,
2013-03-03 15:57:00,33.6,18.3,29.84,South,180,2.7,-999.0,53,-99.99,,,0.00,Acu-Link.com,2013-03-03 20:57:00,
2013-03-03 16:13:00,33.3,18.5,29.85,NNE,22,5.3,-999.0,54,-99.99,,,0.00,Acu-Link.com,2013-03-03 21:13:00,
2013-03-03 16:28:00,32.9,18.1,29.85,ENE,67,1.7,-999.0,54,-99.99,,,0.00,Acu-Link.com,2013-03-03 21:28:00,
2013-03-03 16:43:00,32.0,17.3,29.85,East,90,3.2,-999.0,54,-99.99,,,0.00,Acu-Link.com,2013-03-03 21:43:00,
2013-03-03 16:58:00,31.5,17.2,29.85,ENE,67,3.7,-999.0,55,-99.99,,,0.00,Acu-Link.com,2013-03-03 21:58:00,
2013-03-03 17:13:00,31.1,17.7,29.86,West,270,3.2,-999.0,57,-99.99,,,0.00,Acu-Link.com,2013-03-03 22:13:00,
2013-03-03 17:29:00,30.9,17.1,29.87,SE,135,3.2,-999.0,56,-99.99,,,0.00,Acu-Link.com,2013-03-03 22:29:00,
2013-03-03 17:44:00,30.4,17.4,29.87,South,180,2.2,-999.0,58,-99.99,,,0.00,Acu-Link.com,2013-03-03 22:44:00,
2013-03-03 17:59:00,29.8,17.6,29.87,West,270,1.7,-999.0,60,-99.99,,,0.00,Acu-Link.com,2013-03-03 22:59:00,
2013-03-03 18:15:00,29.5,17.0,29.87,NE,45,2.2,-999.0,59,-99.99,,,0.00,Acu-Link.com,2013-03-03 23:15:00,
2013-03-03 18:30:00,28.8,17.4,29.88,NE,45,3.2,-999.0,62,-99.99,,,0.00,Acu-Link.com,2013-03-03 23:30:00,
2013-03-03 18:45:00,28.6,17.3,29.88,ENE,67,2.7,-999.0,62,-99.99,,,0.00,Acu-Link.com,2013-03-03 23:45:00,
2013-03-03 19:00:00,28.4,17.4,29.89,ENE,67,4.7,-999.0,63,-99.99,,,0.00,Acu-Link.com,2013-03-04 00:00:00,
2013-03-03 19:15:00,28.0,17.4,29.89,ENE,67,2.7,-999.0,64,-99.99,,,0.00,Acu-Link.com,2013-03-04 00:15:00,
2013-03-03 19:31:00,27.7,17.8,29.90,ENE,67,3.2,-999.0,66,-99.99,,,0.00,Acu-Link.com,2013-03-04 00:31:00,
2013-03-03 19:46:00,27.3,18.2,29.90,WSW,247,2.2,-999.0,68,-99.99,,,0.00,Acu-Link.com,2013-03-04 00:46:00,
2013-03-03 20:01:00,27.0,18.2,29.91,East,90,2.2,-999.0,69,-99.99,,,0.00,Acu-Link.com,2013-03-04 01:01:00,
2013-03-03 20:16:00,26.6,17.8,29.91,ENE,67,2.7,-999.0,69,-99.99,,,0.00,Acu-Link.com,2013-03-04 01:16:00,
2013-03-03 20:31:00,26.4,18.0,29.91,NE,45,2.7,-999.0,70,-99.99,,,0.00,Acu-Link.com,2013-03-04 01:31:00,
2013-03-03 20:47:00,26.2,17.4,29.92,ENE,67,0.0,-999.0,69,-99.99,,,0.00,Acu-Link.com,2013-03-04 01:47:00,
2013-03-03 21:02:00,26.1,18.0,29.92,NE,45,2.2,-999.0,71,-99.99,,,0.00,Acu-Link.com,2013-03-04 02:02:00,
2013-03-03 21:17:00,25.5,17.4,29.91,NNE,22,0.0,-999.0,71,-99.99,,,0.00,Acu-Link.com,2013-03-04 02:17:00,
2013-03-03 21:33:00,25.0,17.3,29.92,East,90,0.0,-999.0,72,-99.99,,,0.00,Acu-Link.com,2013-03-04 02:33:00,
2013-03-03 21:48:00,24.8,16.8,29.91,ENE,67,0.0,-999.0,71,-99.99,,,0.00,Acu-Link.com,2013-03-04 02:48:00,
2013-03-03 22:03:00,24.8,16.8,29.91,ENE,67,0.0,-999.0,71,-99.99,,,0.00,Acu-Link.com,2013-03-04 03:03:00,
2013-03-03 22:19:00,24.8,17.1,29.91,NE,45,1.7,-999.0,72,-99.99,,,0.00,Acu-Link.com,2013-03-04 03:19:00,
2013-03-03 22:34:00,24.8,17.1,29.91,East,90,1.7,-999.0,72,-99.99,,,0.00,Acu-Link.com,2013-03-04 03:34:00,
2013-03-03 22:49:00,24.8,17.1,29.91,NE,45,0.0,-999.0,72,-99.99,,,0.00,Acu-Link.com,2013-03-04 03:49:00,
2013-03-03 23:04:00,24.6,16.9,29.91,SSW,202,0.0,-999.0,72,-99.99,,,0.00,Acu-Link.com,2013-03-04 04:04:00,
2013-03-03 23:19:00,24.4,17.0,29.91,ENE,67,1.1,-999.0,73,-99.99,,,0.00,Acu-Link.com,2013-03-04 04:19:00,
2013-03-03 23:35:00,24.3,16.6,29.91,South,180,0.0,-999.0,72,-99.99,,,0.00,Acu-Link.com,2013-03-04 04:35:00,
2013-03-03 23:50:00,23.9,16.5,29.91,East,90,0.0,-999.0,73,-99.99,,,0.00,Acu-Link.com,2013-03-04 04:50:00,